Latest Weather Observations for Cobar Airport

IDN60801

Issued at 7:32 am EDT Monday 23 October 2017 (issued every 30 minutes, with the page automatically refreshed every 10 minutes)

About weather observations | Map of weather stations | Latest weather observations for NSW | Other Formats
Station Details ID: 048237 Name: COBAR AIRPORT AWS Lat: -31.54 Lon: 145.80 Height: 218.0 m
Data from the previous 72 hours. | See also: Recent months at Cobar Airport
Date/Time
EDT
Temp
°C
App
Temp
°C
Dew
Point
°C
Rel
Hum
%
Delta-T
°C
Wind Press
QNH
hPa
Press
MSL
hPa
Rain since
9am
mm
Dir  Spd
km/h
Gust
km/h
Spd
kts
Gust
kts
23/07:30am 12.0 9.7 7.5 74 2.2 S 9 13 5 7 1017.2 1016.6 0.0
23/07:00am 9.0 8.6 8.1 94 0.4 CALM 0 0 0 0 1016.9 1016.3 0.0
23/06:30am 8.0 7.3 6.8 92 0.6 CALM 0 0 0 0 1016.7 1016.1 0.0
23/06:00am 9.0 8.4 7.6 91 0.7 CALM 0 0 0 0 1016.2 1015.6 0.0
23/05:30am 8.5 7.8 7.0 90 0.7 CALM 0 0 0 0 1016.0 1015.4 0.0
23/05:00am 8.7 8.0 6.8 88 0.9 CALM 0 0 0 0 1015.8 1015.2 0.0
23/04:30am 9.5 8.9 7.3 86 1.1 CALM 0 0 0 0 1015.7 1015.1 0.0
23/04:00am 10.1 9.6 7.7 85 1.2 CALM 0 0 0 0 1015.7 1015.1 0.0
23/03:30am 10.8 10.3 7.9 82 1.4 CALM 0 0 0 0 1015.8 1015.2 0.0
23/03:00am 10.7 8.9 7.0 78 1.8 SSW 6 7 3 4 1016.0 1015.4 0.0
23/02:30am 11.3 10.2 6.8 74 2.2 SSW 2 6 1 3 1016.1 1015.5 0.0
23/02:00am 11.8 11.0 6.5 70 2.5 CALM 0 4 0 2 1016.2 1015.6 0.0
23/01:30am 12.8 10.9 6.6 66 3.0 SSW 6 7 3 4 1016.5 1015.9 0.0
23/01:00am 13.6 11.3 5.7 59 3.8 SSW 7 9 4 5 1016.9 1016.3 0.0
23/12:30am 15.0 11.5 5.5 53 4.6 SSW 13 17 7 9 1016.9 1016.3 0.0
23/12:00am 14.5 11.9 6.1 57 4.1 SW 9 13 5 7 1017.0 1016.4 0.0
 
Date/Time
EDT
Temp
°C
App
Temp
°C
Dew
Point
°C
Rel
Hum
%
Delta-T
°C
Wind Press
QNH
hPa
Press
MSL
hPa
Rain since
9am
mm
Dir  Spd
km/h
Gust
km/h
Spd
kts
Gust
kts
22/11:30pm 13.9 11.3 6.3 60 3.7 SW 9 9 5 5 1016.9 1016.3 0.0
22/11:00pm 14.6 11.9 5.7 55 4.3 SW 9 11 5 6 1016.8 1016.2 0.0
22/10:30pm 15.4 12.7 5.6 52 4.7 SW 9 11 5 6 1016.7 1016.1 0.0
22/10:00pm 16.0 13.2 5.3 49 5.2 SW 9 11 5 6 1016.6 1016.0 0.0
22/09:30pm 16.7 13.4 4.7 45 5.7 SW 11 13 6 7 1016.3 1015.7 0.0
22/09:00pm 17.4 14.1 4.4 42 6.2 SW 11 13 6 7 1016.1 1015.5 0.0
22/08:30pm 18.2 14.8 4.0 39 6.8 SW 11 13 6 7 1015.8 1015.2 0.0
22/08:00pm 19.0 15.1 3.2 35 7.5 SW 13 17 7 9 1015.5 1014.9 0.0
22/07:30pm 19.7 15.3 2.6 32 8.0 SSW 15 20 8 11 1015.0 1014.4 0.0
22/07:00pm 20.7 15.4 2.0 29 8.7 SSW 19 26 10 14 1014.7 1014.0 0.0
22/06:30pm 21.2 15.7 2.0 28 9.0 SSW 20 26 11 14 1014.4 1013.8 0.0
22/06:00pm 21.5 15.6 1.7 27 9.3 SSW 22 33 12 18 1014.3 1013.7 0.0
22/05:30pm 21.5 14.8 1.7 27 9.3 SSW 26 39 14 21 1014.3 1013.7 0.0
22/05:00pm 22.0 15.4 2.2 27 9.4 SW 26 37 14 20 1014.0 1013.4 0.0
22/04:30pm 21.4 14.4 1.7 27 9.2 SW 28 35 15 19 1014.0 1013.4 0.0
22/04:00pm 22.4 16.3 3.0 28 9.4 SW 24 39 13 21 1014.0 1013.4 0.0
22/03:30pm 21.1 14.9 2.4 29 8.8 SW 24 39 13 21 1014.3 1013.7 0.0
22/03:00pm 20.9 14.8 2.7 30 8.6 SW 24 39 13 21 1014.7 1014.0 0.0
22/02:30pm 20.4 14.5 1.8 29 8.6 SW 22 33 12 18 1015.1 1014.5 0.0
22/02:00pm 20.7 14.6 3.0 31 8.4 SSW 24 30 13 16 1015.6 1015.0 0.0
22/01:30pm 21.3 16.0 4.8 34 8.2 S 22 32 12 17 1015.9 1015.3 0.0
22/01:00pm 19.2 14.0 3.4 35 7.5 SSW 20 32 11 17 1016.3 1015.7 0.0
22/12:30pm 19.0 14.0 3.6 36 7.3 SSW 19 28 10 15 1016.6 1016.0 0.0
22/12:00pm 17.8 13.3 4.4 41 6.4 SW 17 26 9 14 1016.9 1016.3 0.0
22/11:30am 17.2 13.7 5.5 46 5.7 SW 13 24 7 13 1017.5 1016.9 0.0
22/11:00am 16.2 10.4 4.3 45 5.6 S 24 32 13 17 1017.8 1017.2 0.0
22/10:30am 15.7 10.7 4.7 48 5.2 S 20 30 11 16 1018.1 1017.5 0.0
22/10:00am 15.5 10.2 5.1 50 5.0 S 22 30 12 16 1018.1 1017.5 0.0
22/09:30am 14.8 8.8 5.1 52 4.6 S 26 32 14 17 1018.1 1017.5 0.0
22/09:00am 14.1 8.4 4.7 53 4.4 S 24 32 13 17 1018.0 1017.4 0.0
22/08:30am 13.5 8.7 4.9 56 4.0 S 19 24 10 13 1017.8 1017.2 0.0
22/08:00am 12.5 8.2 5.2 61 3.4 S 17 28 9 15 1017.7 1017.1 0.0
22/07:30am 11.2 8.0 5.3 67 2.7 SSW 11 17 6 9 1017.3 1016.7 0.0
22/07:00am 10.0 7.6 5.2 72 2.2 SSW 7 9 4 5 1017.0 1016.4 0.0
22/06:30am 9.7 6.8 4.9 72 2.2 SSW 9 13 5 7 1016.8 1016.2 0.0
22/06:00am 9.8 7.0 5.0 72 2.2 SSW 9 13 5 7 1016.5 1015.9 0.0
22/05:30am 8.9 6.6 4.9 76 1.8 SW 6 9 3 5 1016.3 1015.7 0.0
22/05:00am 9.9 8.6 4.3 68 2.5 CALM 0 0 0 0 1016.2 1015.6 0.0
22/04:30am 11.5 8.1 4.0 60 3.4 SSW 11 17 6 9 1016.2 1015.6 0.0
22/04:00am 12.3 8.5 4.0 57 3.8 SSW 13 17 7 9 1016.3 1015.7 0.0
22/03:30am 12.1 8.8 4.3 59 3.6 SSW 11 17 6 9 1016.4 1015.8 0.0
22/03:00am 12.3 8.6 4.5 59 3.6 SSW 13 17 7 9 1016.6 1016.0 0.0
22/02:30am 12.4 9.1 4.4 58 3.7 SSW 11 13 6 7 1016.7 1016.1 0.0
22/02:00am 13.5 9.8 4.4 54 4.2 SSW 13 17 7 9 1017.0 1016.4 0.0
22/01:30am 13.9 10.2 4.2 52 4.5 SSW 13 17 7 9 1017.1 1016.5 0.0
22/01:00am 14.4 10.0 4.7 52 4.6 SSW 17 20 9 11 1017.5 1016.9 0.0
22/12:30am 12.3 10.5 7.0 70 2.6 SW 6 7 3 4 1017.8 1017.2 0.0
22/12:00am 13.0 12.1 6.1 63 3.3 CALM 0 0 0 0 1018.0 1017.4 0.0
 
Date/Time
EDT
Temp
°C
App
Temp
°C
Dew
Point
°C
Rel
Hum
%
Delta-T
°C
Wind Press
QNH
hPa
Press
MSL
hPa
Rain since
9am
mm
Dir  Spd
km/h
Gust
km/h
Spd
kts
Gust
kts
21/11:30pm 13.8 12.1 5.7 58 3.9 SW 4 6 2 3 1018.0 1017.4 0.0
21/11:00pm 15.2 12.3 4.6 49 5.0 SW 9 11 5 6 1018.1 1017.5 0.0
21/10:30pm 16.5 13.2 4.5 45 5.7 SSW 11 15 6 8 1018.0 1017.4 0.0
21/10:00pm 17.3 13.6 4.6 43 6.1 SSW 13 17 7 9 1018.0 1017.4 0.0
21/09:30pm 18.2 14.2 4.7 41 6.5 SSW 15 19 8 10 1017.9 1017.3 0.0
21/09:00pm 18.5 15.0 5.4 42 6.4 SW 13 17 7 9 1017.8 1017.2 0.0
21/08:30pm 19.4 15.9 5.5 40 6.9 SSW 13 17 7 9 1017.5 1016.9 0.0
21/08:00pm 20.2 16.7 5.4 38 7.4 SSW 13 17 7 9 1017.4 1016.8 0.0
21/07:30pm 21.2 16.5 5.1 35 8.0 SSW 19 24 10 13 1017.2 1016.6 0.0
21/07:00pm 22.2 16.9 5.2 33 8.5 SSW 22 30 12 16 1017.1 1016.5 0.0
21/06:30pm 23.1 18.5 6.4 34 8.6 SSW 20 28 11 15 1016.9 1016.3 0.0
21/06:00pm 23.3 18.7 6.6 34 8.7 SSW 20 32 11 17 1016.9 1016.3 0.0
21/05:30pm 23.9 19.4 7.1 34 8.8 S 20 28 11 15 1016.9 1016.3 0.0
21/05:00pm 23.5 19.0 6.3 33 8.9 S 19 26 10 14 1017.0 1016.4 0.0
21/04:30pm 23.4 18.9 6.2 33 8.9 SSE 19 30 10 16 1017.3 1016.7 0.0
21/04:00pm 23.7 20.8 6.5 33 8.9 S 11 26 6 14 1017.5 1016.9 0.0
21/03:30pm 23.0 18.0 6.3 34 8.6 SSW 22 32 12 17 1018.0 1017.4 0.0
21/03:00pm 21.7 17.7 6.8 38 7.7 SW 17 32 9 17 1018.4 1017.8 0.0
21/02:30pm 22.4 17.9 7.0 37 8.0 S 20 30 11 16 1018.9 1018.4 0.0
21/02:00pm 21.2 17.2 6.7 39 7.4 SW 17 24 9 13 1019.4 1018.9 0.0
21/01:30pm 20.8 16.1 6.0 38 7.5 S 20 30 11 16 1019.9 1019.3 0.0
21/01:00pm 20.7 16.4 7.0 41 7.0 S 19 30 10 16 1020.3 1019.7 0.0
21/12:30pm 20.0 16.6 9.3 50 5.7 SSW 17 24 9 13 1020.7 1020.1 0.0
21/12:00pm 19.1 15.7 9.3 53 5.2 SSW 17 28 9 15 1020.9 1020.3 0.0
21/11:30am 17.8 15.5 8.9 56 4.7 SSW 11 20 6 11 1021.3 1020.7 0.0
21/11:00am 17.3 15.0 9.0 58 4.3 SSW 11 19 6 10 1021.6 1021.0 0.0
21/10:30am 15.6 12.9 7.4 58 4.1 S 11 17 6 9 1021.8 1021.2 0.0
21/10:00am 14.7 11.9 7.0 60 3.8 SSE 11 15 6 8 1021.8 1021.2 0.0
21/09:30am 13.5 9.4 6.1 61 3.6 S 17 24 9 13 1021.8 1021.2 0.0
21/09:00am 12.8 8.6 5.9 63 3.3 SSW 17 24 9 13 1021.8 1021.2 0.2
21/08:30am 11.6 6.4 5.3 65 2.9 SSW 22 28 12 15 1021.7 1021.1 0.2
21/08:00am 10.7 5.7 4.6 66 2.8 S 20 26 11 14 1021.4 1020.8 0.2
21/07:30am 10.1 6.6 5.3 72 2.2 SSW 13 19 7 10 1021.2 1020.6 0.2
21/07:00am 8.8 5.7 5.4 79 1.5 SSW 11 15 6 8 1020.9 1020.3 0.2
21/06:30am 8.1 5.4 5.4 83 1.2 SSW 9 11 5 6 1021.0 1020.4 0.2
21/06:00am 8.0 5.2 5.3 83 1.2 SSW 9 11 5 6 1020.9 1020.3 0.2
21/05:30am 8.8 6.0 5.0 77 1.7 SSW 9 9 5 5 1020.7 1020.1 0.2
21/05:00am 9.0 6.2 5.2 77 1.7 S 9 13 5 7 1020.8 1020.2 0.2
21/04:30am 8.9 6.0 4.7 75 1.9 SSW 9 11 5 6 1020.9 1020.3 0.2
21/04:00am 9.8 6.9 4.6 70 2.3 S 9 11 5 6 1020.9 1020.3 0.2
21/03:30am 9.8 7.3 4.8 71 2.3 SSW 7 9 4 5 1021.2 1020.6 0.2
21/03:00am 10.9 8.3 4.1 63 3.1 S 7 9 4 5 1021.5 1020.9 0.2
21/02:30am 11.5 8.5 4.0 60 3.4 S 9 13 5 7 1021.5 1020.9 0.2
21/02:00am 12.9 8.7 3.8 54 4.1 S 15 19 8 10 1021.8 1021.2 0.2
21/01:30am 12.8 8.6 4.0 55 4.0 SSW 15 19 8 10 1021.9 1021.3 0.2
21/01:00am 13.4 9.2 4.0 53 4.3 SSW 15 19 8 10 1022.1 1021.5 0.2
21/12:30am 14.1 10.0 4.1 51 4.6 SSW 15 19 8 10 1022.3 1021.7 0.2
21/12:00am 14.8 10.2 3.9 48 5.0 SSW 17 24 9 13 1022.4 1021.8 0.2
 
Date/Time
EDT
Temp
°C
App
Temp
°C
Dew
Point
°C
Rel
Hum
%
Delta-T
°C
Wind Press
QNH
hPa
Press
MSL
hPa
Rain since
9am
mm
Dir  Spd
km/h
Gust
km/h
Spd
kts
Gust
kts
20/11:30pm 13.5 10.9 6.1 61 3.6 SSW 9 13 5 7 1022.6 1022.0 0.2
20/11:00pm 14.1 11.5 6.0 58 3.9 S 9 9 5 5 1022.6 1022.0 0.2
20/10:30pm 15.4 11.6 5.9 53 4.6 SSW 15 19 8 10 1022.4 1021.8 0.2
20/10:00pm 15.6 12.2 6.1 53 4.6 SSW 13 15 7 8 1022.5 1021.9 0.2
20/09:30pm 16.8 13.4 5.7 48 5.4 SSW 13 17 7 9 1022.4 1021.8 0.2
20/09:15pm 17.4 13.6 5.7 46 5.7 SSW 15 20 8 11 1022.2 1021.6 0.2
20/09:00pm 17.3 13.9 5.9 47 5.6 SSW 13 17 7 9 1022.0 1021.4 0.2
20/08:56pm 17.3 13.9 5.9 47 5.6 SSW 13 15 7 8 1021.9 1021.3 0.2
20/08:30pm 18.1 14.3 5.7 44 6.1 SSW 15 19 8 10 1021.5 1020.9 0.2
20/08:00pm 18.9 15.0 5.4 41 6.6 SSW 15 20 8 11 1021.0 1020.4 0.2
20/07:30pm 20.1 15.2 5.0 37 7.5 SSW 20 26 11 14 1020.7 1020.1 0.2
20/07:00pm 21.3 16.1 5.6 36 7.9 SSW 22 33 12 18 1020.3 1019.7 0.2
20/06:30pm 21.7 16.3 6.4 37 7.8 S 24 32 13 17 1020.1 1019.5 0.2
20/06:00pm 22.0 16.9 5.8 35 8.2 SSW 22 33 12 18 1019.9 1019.3 0.2
20/05:30pm 22.0 15.5 4.6 32 8.6 SSW 28 35 15 19 1020.0 1019.4 0.2
20/05:00pm 22.1 17.0 5.9 35 8.2 SSW 22 32 12 17 1020.0 1019.4 0.2
20/04:30pm 21.2 16.2 6.3 38 7.6 SW 22 32 12 17 1020.1 1019.5 0.2
20/04:00pm 21.8 17.3 6.9 38 7.7 SSW 20 32 11 17 1020.4 1019.8 0.2
20/03:30pm 21.9 17.7 8.4 42 7.2 SSW 20 32 11 17 1020.8 1020.2 0.2
20/03:00pm 21.6 17.3 9.5 46 6.5 SSW 22 32 12 17 1021.0 1020.4 0.2
20/02:30pm 21.2 16.9 9.4 47 6.4 SSW 22 32 12 17 1021.3 1020.7 0.2
20/02:00pm 20.9 17.6 11.0 53 5.5 SSW 19 30 10 16 1021.8 1021.2 0.2
20/01:30pm 20.6 16.8 11.2 55 5.2 SSW 22 30 12 16 1021.9 1021.3 0.2
20/01:00pm 21.0 16.8 11.1 53 5.5 SSW 24 32 13 17 1022.1 1021.5 0.2
20/12:30pm 20.1 16.7 11.1 56 5.0 SSW 20 30 11 16 1022.4 1021.8 0.2
20/12:00pm 19.5 15.4 11.3 59 4.5 SSW 24 35 13 19 1022.6 1022.0 0.2
20/11:30am 18.4 14.0 11.7 65 3.7 S 26 39 14 21 1022.7 1022.1 0.2
20/11:00am 18.1 14.5 13.2 73 2.8 S 24 33 13 18 1022.9 1022.4 0.0
20/10:30am 17.3 13.2 12.8 75 2.5 SSW 26 33 14 18 1022.9 1022.4 0.0
20/10:00am 16.9 12.7 12.4 75 2.5 SSW 26 32 14 17 1022.9 1022.4 0.0
20/09:30am 17.4 13.6 13.5 78 2.2 SSW 26 39 14 21 1022.5 1021.9 0.0
20/09:00am 16.3 12.4 13.4 83 1.6 S 26 37 14 20 1022.0 1021.4 22.0
20/08:30am 16.3 13.0 14.0 86 1.3 SSW 24 35 13 19 1021.7 1021.1 22.0
20/08:00am 16.4 14.8 14.9 91 0.9 SSW 17 26 9 14 1021.6 1021.0 22.0

Other Formats:

Comma delimited format used in spreadsheet applications
http://www.bom.gov.au/fwo/IDN60801/IDN60801.94710.axf

JavaScript Object Notation format (JSON) in row-major order
http://www.bom.gov.au/fwo/IDN60801/IDN60801.94710.json